createdAt,value
2022-09-27T00:01:17.098Z,3.60
2022-09-27T00:03:45.373Z,4.13
2022-09-27T00:06:17.434Z,4.18
2022-09-27T00:08:45.399Z,3.65
2022-09-27T00:11:21.230Z,4.80
2022-09-27T00:13:50.546Z,4.18
2022-09-27T00:16:18.769Z,4.88
2022-09-27T00:18:46.803Z,4.07
2022-09-27T00:21:15.417Z,4.25
2022-09-27T00:23:43.375Z,4.70
2022-09-27T00:26:14.331Z,4.75
2022-09-27T00:28:42.504Z,4.40
2022-09-27T00:31:22.448Z,4.70
2022-09-27T00:33:52.166Z,4.20
2022-09-27T00:36:21.615Z,4.35
2022-09-27T00:38:50.047Z,4.65
2022-09-27T00:41:20.587Z,4.18
2022-09-27T00:43:50.682Z,4.15
2022-09-27T00:46:25.933Z,4.32
2022-09-27T00:49:06.679Z,4.45
2022-09-27T00:51:38.274Z,3.88
2022-09-27T00:54:08.473Z,4.32
2022-09-27T00:56:38.053Z,4.32
2022-09-27T00:59:12.252Z,4.03
2022-09-27T01:01:41.855Z,4.53
2022-09-27T01:04:12.062Z,4.13
2022-09-27T01:06:40.080Z,4.05
2022-09-27T01:09:11.239Z,4.28
2022-09-27T01:11:44.758Z,4.20
2022-09-27T01:14:30.494Z,3.83
2022-09-27T01:17:08.627Z,4.35
2022-09-27T01:20:08.857Z,4.32
2022-09-27T01:22:43.120Z,4.47
2022-09-27T01:25:31.604Z,4.05
2022-09-27T01:28:21.214Z,4.45
2022-09-27T01:30:55.208Z,3.80
2022-09-27T01:33:32.768Z,3.40
2022-09-27T01:36:21.917Z,3.65
2022-09-27T01:38:59.879Z,4.10
2022-09-27T01:41:36.116Z,4.13
2022-09-27T01:44:10.373Z,3.92
2022-09-27T01:46:43.205Z,3.80
2022-09-27T01:49:17.603Z,3.63
2022-09-27T01:51:49.673Z,3.30
2022-09-27T01:54:23.317Z,3.30
2022-09-27T01:56:54.667Z,3.60
2022-09-27T01:59:29.581Z,3.47
2022-09-27T02:02:08.788Z,3.70
2022-09-27T02:04:41.182Z,3.67
2022-09-27T02:07:13.913Z,3.58
2022-09-27T02:09:47.889Z,3.45
2022-09-27T02:12:20.045Z,3.83
2022-09-27T02:14:52.828Z,3.22
2022-09-27T02:17:31.055Z,3.47
2022-09-27T02:20:13.564Z,3.30
2022-09-27T02:22:46.903Z,3.55
2022-09-27T02:25:22.287Z,3.47
2022-09-27T02:27:59.049Z,3.22
2022-09-27T02:30:27.061Z,3.45
2022-09-27T02:32:56.475Z,2.95
2022-09-27T02:35:27.697Z,3.08
2022-09-27T02:37:56.661Z,3.58
2022-09-27T02:40:26.208Z,3.28
2022-09-27T02:42:54.230Z,3.80
2022-09-27T02:45:22.501Z,3.72
2022-09-27T02:48:14.274Z,3.50
2022-09-27T02:51:02.153Z,3.72
2022-09-27T02:53:42.914Z,3.78
2022-09-27T02:56:20.603Z,3.90
2022-09-27T02:58:59.941Z,4.43
2022-09-27T03:01:37.223Z,4.20
2022-09-27T03:04:12.293Z,5.20
2022-09-27T03:06:42.398Z,6.38
2022-09-27T03:09:18.654Z,5.53
2022-09-27T03:11:46.647Z,6.30
2022-09-27T03:14:14.938Z,6.60
2022-09-27T03:16:43.033Z,7.07
2022-09-27T03:19:12.372Z,6.65
2022-09-27T03:21:40.710Z,7.45
2022-09-27T03:24:08.868Z,6.93
2022-09-27T03:26:36.761Z,7.47
2022-09-27T03:29:04.696Z,11.25
2022-09-27T03:31:32.728Z,7.43
2022-09-27T03:34:00.745Z,7.38
2022-09-27T03:36:29.984Z,10.70
2022-09-27T03:38:57.912Z,7.63
2022-09-27T03:41:25.963Z,7.80
2022-09-27T03:43:56.640Z,6.72
2022-09-27T03:46:24.983Z,6.90
2022-09-27T03:48:53.215Z,7.10
2022-09-27T03:51:21.281Z,7.65
2022-09-27T03:53:50.621Z,6.68
2022-09-27T03:56:18.891Z,6.72
2022-09-27T03:58:47.151Z,7.03
2022-09-27T04:01:15.639Z,6.68
2022-09-27T04:03:43.631Z,6.30
2022-09-27T04:06:11.715Z,6.63
2022-09-27T04:08:39.659Z,6.47
2022-09-27T04:11:08.954Z,6.63
2022-09-27T04:13:36.922Z,6.75
2022-09-27T04:16:05.391Z,6.40
2022-09-27T04:18:33.481Z,7.05
2022-09-27T04:21:02.056Z,9.63
2022-09-27T04:23:30.397Z,8.25
2022-09-27T04:25:58.387Z,10.23
2022-09-27T04:28:28.012Z,8.07
2022-09-27T04:30:56.011Z,7.15
2022-09-27T04:33:24.640Z,6.68
2022-09-27T04:36:09.840Z,8.35
2022-09-27T04:38:37.803Z,6.72
2022-09-27T04:41:06.878Z,6.10
2022-09-27T04:43:36.455Z,6.40
2022-09-27T04:46:04.590Z,6.70
2022-09-27T04:48:32.693Z,6.40
2022-09-27T04:51:02.326Z,6.40
2022-09-27T04:53:30.884Z,6.00
2022-09-27T04:55:59.190Z,5.90
2022-09-27T04:58:27.553Z,6.50
2022-09-27T05:00:56.858Z,6.35
2022-09-27T05:03:24.910Z,5.90
2022-09-27T05:05:52.995Z,5.47
2022-09-27T05:08:21.073Z,6.90
2022-09-27T05:10:49.522Z,6.97
2022-09-27T05:13:18.419Z,6.47
2022-09-27T05:15:46.350Z,6.20
2022-09-27T05:18:15.625Z,6.40
2022-09-27T05:20:44.641Z,6.22
2022-09-27T05:23:12.719Z,6.90
2022-09-27T05:25:40.645Z,7.03
2022-09-27T05:28:09.466Z,6.35
2022-09-27T05:30:37.710Z,6.68
2022-09-27T05:33:05.887Z,7.07
2022-09-27T05:35:35.799Z,7.10
2022-09-27T05:40:46.872Z,6.95
2022-09-27T05:43:15.943Z,6.78
2022-09-27T05:45:44.504Z,6.23
2022-09-27T05:48:14.109Z,7.00
2022-09-27T05:50:43.396Z,6.55
2022-09-27T05:53:13.865Z,6.72
2022-09-27T05:55:41.792Z,7.45
2022-09-27T05:58:13.702Z,6.25
2022-09-27T06:00:41.651Z,8.20
2022-09-27T06:03:09.737Z,7.50
2022-09-27T06:05:40.009Z,7.07
2022-09-27T06:08:11.629Z,6.35
2022-09-27T06:10:41.223Z,6.03
2022-09-27T06:13:12.394Z,6.95
2022-09-27T06:15:42.216Z,6.15
2022-09-27T06:18:12.479Z,6.10
2022-09-27T06:20:41.537Z,5.90
2022-09-27T06:23:13.779Z,5.93
2022-09-27T06:25:42.944Z,6.07
2022-09-27T06:28:11.547Z,5.55
2022-09-27T06:30:41.580Z,5.53
2022-09-27T06:33:12.924Z,5.80
2022-09-27T06:35:42.440Z,5.85
2022-09-27T06:38:13.829Z,5.50
2022-09-27T06:40:43.182Z,5.13
2022-09-27T06:43:12.310Z,5.20
2022-09-27T06:45:40.529Z,5.10
2022-09-27T06:48:10.834Z,5.55
2022-09-27T06:50:40.696Z,4.60
2022-09-27T06:55:40.746Z,4.75
2022-09-27T06:58:26.501Z,4.75
2022-09-27T07:00:55.212Z,5.25
2022-09-27T07:03:35.395Z,4.75
2022-09-27T07:06:07.303Z,4.65
2022-09-27T07:08:36.023Z,5.07
2022-09-27T07:11:07.394Z,5.32
2022-09-27T07:13:40.370Z,4.75
2022-09-27T07:16:08.453Z,4.95
2022-09-27T07:18:36.600Z,4.78
2022-09-27T07:21:04.558Z,4.43
2022-09-27T07:23:32.480Z,5.07
2022-09-27T07:26:04.429Z,4.55
2022-09-27T07:28:34.712Z,4.85
2022-09-27T07:31:03.761Z,5.20
2022-09-27T07:33:32.214Z,4.57
2022-09-27T07:36:00.337Z,5.10
2022-09-27T07:38:28.377Z,4.80
2022-09-27T07:40:56.359Z,4.30
2022-09-27T07:43:24.366Z,4.70
2022-09-27T07:45:57.016Z,4.93
2022-09-27T07:48:25.393Z,4.65
2022-09-27T07:50:53.977Z,4.30
2022-09-27T07:53:24.131Z,5.90
2022-09-27T07:55:53.266Z,5.38
2022-09-27T07:58:22.088Z,3.50
2022-09-27T08:00:50.151Z,3.42
2022-09-27T08:03:19.726Z,2.95
2022-09-27T08:05:49.087Z,2.90
2022-09-27T08:08:17.304Z,2.70
2022-09-27T08:10:46.639Z,2.85
2022-09-27T08:13:17.913Z,2.72
2022-09-27T08:15:45.914Z,2.70
2022-09-27T08:18:14.091Z,2.40
2022-09-27T08:20:43.490Z,2.80
2022-09-27T08:23:11.434Z,3.13
2022-09-27T08:25:40.256Z,3.35
2022-09-27T08:28:08.238Z,4.38
2022-09-27T08:30:36.160Z,3.10
2022-09-27T08:33:04.177Z,5.10
2022-09-27T08:35:33.858Z,5.07
2022-09-27T08:38:05.893Z,3.08
2022-09-27T08:40:46.805Z,2.80
2022-09-27T08:43:21.511Z,2.92
2022-09-27T08:46:02.624Z,2.88
2022-09-27T08:48:32.160Z,2.90
2022-09-27T08:51:02.010Z,2.88
2022-09-27T08:56:04.262Z,2.60
2022-09-27T08:58:35.733Z,2.50
2022-09-27T09:01:06.387Z,2.55
2022-09-27T09:03:37.294Z,2.38
2022-09-27T09:06:15.651Z,2.20
2022-09-27T09:08:55.603Z,2.17
2022-09-27T09:14:31.222Z,2.40
2022-09-27T09:17:09.106Z,2.10
2022-09-27T09:19:49.441Z,2.25
2022-09-27T09:22:32.857Z,2.47
2022-09-27T09:25:16.123Z,2.42
2022-09-27T09:27:53.704Z,1.80
2022-09-27T09:30:24.485Z,2.33
2022-09-27T09:33:10.979Z,2.08
2022-09-27T09:35:43.570Z,1.67
2022-09-27T09:38:17.012Z,2.05
2022-09-27T09:40:49.824Z,1.85
2022-09-27T09:43:22.409Z,1.70
2022-09-27T09:45:56.003Z,1.40
2022-09-27T09:48:31.308Z,1.52
2022-09-27T09:51:02.756Z,1.48
2022-09-27T09:53:39.302Z,1.30
2022-09-27T09:56:14.636Z,1.35
2022-09-27T09:58:49.192Z,1.15
2022-09-27T10:01:21.046Z,1.30
2022-09-27T10:03:49.577Z,1.70
2022-09-27T10:06:19.293Z,1.30
2022-09-27T10:08:47.584Z,1.42
2022-09-27T10:11:22.660Z,1.20
2022-09-27T10:13:50.915Z,1.10
2022-09-27T10:16:20.992Z,1.10
2022-09-27T10:18:50.586Z,1.02
2022-09-27T10:21:22.901Z,1.30
2022-09-27T10:24:14.998Z,1.05
2022-09-27T10:26:50.921Z,0.93
2022-09-27T10:29:25.157Z,0.90
2022-09-27T10:31:53.851Z,0.90
2022-09-27T10:34:28.054Z,0.98
2022-09-27T10:37:17.414Z,0.93
2022-09-27T10:39:46.330Z,1.00
2022-09-27T10:42:32.635Z,1.00
2022-09-27T10:45:20.819Z,0.90
2022-09-27T10:47:49.135Z,0.80
2022-09-27T10:50:45.870Z,0.80
2022-09-27T10:53:16.207Z,1.00
2022-09-27T10:55:47.919Z,0.95
2022-09-27T10:58:21.672Z,1.10
2022-09-27T11:00:57.900Z,0.88
2022-09-27T11:03:28.941Z,1.55
2022-09-27T11:05:59.274Z,1.02
2022-09-27T11:08:32.651Z,1.30
2022-09-27T11:11:07.977Z,1.50
2022-09-27T11:13:37.843Z,1.40
2022-09-27T11:18:59.123Z,1.38
2022-09-27T11:21:36.249Z,1.55
2022-09-27T11:24:18.321Z,1.10
2022-09-27T11:26:55.044Z,1.38
2022-09-27T11:29:33.325Z,1.20
2022-09-27T11:32:14.938Z,0.80
2022-09-27T11:34:55.918Z,0.80
2022-09-27T11:37:32.767Z,0.80
2022-09-27T11:40:13.947Z,0.80
2022-09-27T11:42:57.527Z,0.50
2022-09-27T11:46:03.349Z,0.77
2022-09-27T11:49:11.352Z,0.80
2022-09-27T11:51:54.921Z,0.85
2022-09-27T11:54:41.548Z,0.75
2022-09-27T11:57:18.861Z,1.20
2022-09-27T12:00:06.983Z,1.48
2022-09-27T12:03:16.231Z,0.88
2022-09-27T12:05:59.885Z,1.58
2022-09-27T12:08:44.123Z,2.00
2022-09-27T12:11:19.282Z,1.95
2022-09-27T12:13:53.274Z,1.52
2022-09-27T12:16:23.556Z,1.50
2022-09-27T12:18:54.825Z,0.90
2022-09-27T12:21:23.477Z,0.80
2022-09-27T12:23:55.346Z,0.60
2022-09-27T12:26:28.411Z,1.60
2022-09-27T12:28:59.293Z,0.75
2022-09-27T12:31:33.626Z,0.65
2022-09-27T12:34:14.180Z,1.00
2022-09-27T12:36:49.390Z,1.42
2022-09-27T12:39:23.264Z,1.55
2022-09-27T12:41:56.462Z,1.30
2022-09-27T12:44:24.361Z,1.25
2022-09-27T12:47:05.577Z,1.02
2022-09-27T12:49:45.040Z,0.85
2022-09-27T12:52:23.070Z,1.10
2022-09-27T12:55:18.202Z,0.90
2022-09-27T12:57:59.757Z,0.90
2022-09-27T13:00:32.988Z,0.88
2022-09-27T13:03:26.609Z,0.70
2022-09-27T13:06:13.589Z,0.82
2022-09-27T13:09:14.746Z,0.57
2022-09-27T13:11:50.716Z,1.90
2022-09-27T13:14:22.670Z,2.20
2022-09-27T13:16:51.411Z,2.67
2022-09-27T13:19:42.720Z,0.85
2022-09-27T13:22:37.075Z,1.40
2022-09-27T13:25:31.040Z,1.05
2022-09-27T13:27:58.938Z,0.80
2022-09-27T13:30:50.668Z,0.73
2022-09-27T13:33:43.165Z,0.80
2022-09-27T13:36:34.323Z,1.48
2022-09-27T13:39:24.552Z,0.88
2022-09-27T13:42:18.902Z,0.82
2022-09-27T13:45:16.435Z,0.90
2022-09-27T13:47:49.542Z,0.52
2022-09-27T13:50:24.713Z,0.57
2022-09-27T13:53:00.662Z,0.70
2022-09-27T13:55:49.497Z,0.43
2022-09-27T13:58:50.654Z,0.70
2022-09-27T14:01:28.412Z,0.45
2022-09-27T14:04:00.610Z,0.40
2022-09-27T14:06:35.201Z,0.43
2022-09-27T14:09:07.860Z,0.50
2022-09-27T14:11:40.045Z,0.60
2022-09-27T14:14:15.170Z,0.57
2022-09-27T14:16:47.656Z,0.50
2022-09-27T14:19:19.777Z,0.52
2022-09-27T14:21:48.746Z,0.60
2022-09-27T14:24:25.651Z,1.00
2022-09-27T14:27:10.773Z,0.73
2022-09-27T14:29:42.752Z,0.45
2022-09-27T14:32:13.110Z,0.60
2022-09-27T14:34:41.335Z,0.40
2022-09-27T14:37:26.325Z,0.60
2022-09-27T14:39:56.401Z,0.60
2022-09-27T14:42:32.855Z,0.60
2022-09-27T14:45:06.943Z,0.55
2022-09-27T14:47:34.848Z,0.60
2022-09-27T14:50:14.626Z,0.50
2022-09-27T14:52:42.561Z,0.50
2022-09-27T14:55:17.269Z,0.63
2022-09-27T14:57:50.389Z,0.57
2022-09-27T15:00:21.717Z,0.70
2022-09-27T15:02:54.254Z,0.65
2022-09-27T15:05:25.641Z,0.60
2022-09-27T15:07:56.961Z,0.60
2022-09-27T15:10:31.266Z,0.95
2022-09-27T15:13:03.629Z,0.75
2022-09-27T15:15:34.020Z,0.90
2022-09-27T15:18:03.013Z,1.00
2022-09-27T15:20:35.129Z,1.00
2022-09-27T15:23:04.554Z,1.20
2022-09-27T15:25:35.361Z,1.15
2022-09-27T15:28:07.633Z,0.93
2022-09-27T15:30:38.110Z,1.05
2022-09-27T15:33:07.643Z,1.10
2022-09-27T15:35:36.981Z,1.05
2022-09-27T15:38:27.759Z,1.10
2022-09-27T15:41:04.199Z,1.30
2022-09-27T15:43:36.193Z,2.33
2022-09-27T15:46:07.328Z,1.45
2022-09-27T15:48:37.683Z,1.67
2022-09-27T15:51:41.410Z,13.00
2022-09-27T15:54:09.297Z,1.88
2022-09-27T15:56:37.534Z,1.85
2022-09-27T15:59:07.763Z,1.75
2022-09-27T16:01:35.629Z,1.40
2022-09-27T16:04:03.431Z,2.00
2022-09-27T16:06:31.610Z,1.80
2022-09-27T16:08:59.445Z,1.90
2022-09-27T16:11:27.346Z,1.90
2022-09-27T16:13:55.250Z,1.40
2022-09-27T16:16:24.554Z,1.33
2022-09-27T16:18:52.517Z,0.98
2022-09-27T16:21:20.415Z,1.20
2022-09-27T16:23:48.279Z,1.10
2022-09-27T16:26:16.155Z,1.13
2022-09-27T16:28:44.044Z,1.00
2022-09-27T16:31:13.399Z,1.00
2022-09-27T16:33:42.652Z,0.98
2022-09-27T16:36:15.996Z,1.02
2022-09-27T16:38:44.065Z,1.25
2022-09-27T16:41:12.014Z,1.20
2022-09-27T16:43:39.946Z,0.80
2022-09-27T16:46:12.267Z,1.30
2022-09-27T16:48:42.026Z,1.48
2022-09-27T16:51:31.647Z,1.67
2022-09-27T16:53:59.865Z,1.73
2022-09-27T16:56:28.489Z,1.30
2022-09-27T16:58:56.367Z,1.40
2022-09-27T17:01:24.338Z,2.00
2022-09-27T17:03:57.406Z,1.70
2022-09-27T17:06:25.562Z,1.85
2022-09-27T17:08:53.404Z,1.77
2022-09-27T17:11:21.864Z,1.92
2022-09-27T17:13:50.181Z,2.10
2022-09-27T17:16:18.145Z,1.90
2022-09-27T17:18:46.274Z,1.60
2022-09-27T17:21:15.934Z,2.22
2022-09-27T17:23:44.140Z,2.10
2022-09-27T17:26:17.856Z,2.53
2022-09-27T17:28:45.799Z,2.90
2022-09-27T17:31:15.703Z,3.47
2022-09-27T17:33:45.255Z,2.50
2022-09-27T17:36:17.408Z,2.70
2022-09-27T17:38:46.300Z,2.60
2022-09-27T17:41:16.216Z,2.30
2022-09-27T17:46:19.632Z,5.13
2022-09-27T17:49:05.251Z,11.25
2022-09-27T17:51:35.524Z,14.30
2022-09-27T17:54:03.488Z,12.50
2022-09-27T17:56:32.819Z,7.97
2022-09-27T17:59:01.597Z,6.68
2022-09-27T18:01:29.670Z,5.50
2022-09-27T18:03:59.336Z,5.13
2022-09-27T18:06:27.546Z,5.55
2022-09-27T18:08:57.579Z,5.00
2022-09-27T18:11:28.598Z,4.78
2022-09-27T18:13:59.973Z,4.38
2022-09-27T18:16:32.432Z,4.30
2022-09-27T18:19:00.966Z,4.25
2022-09-27T18:21:31.427Z,3.65
2022-09-27T18:24:02.892Z,3.58
2022-09-27T18:26:32.382Z,4.07
2022-09-27T18:29:02.700Z,3.35
2022-09-27T18:31:30.665Z,4.47
2022-09-27T18:33:58.800Z,4.10
2022-09-27T18:36:28.317Z,4.10
2022-09-27T18:38:58.035Z,4.93
2022-09-27T18:41:29.331Z,5.40
2022-09-27T18:43:59.211Z,3.90
2022-09-27T18:46:37.286Z,4.95
2022-09-27T18:49:07.187Z,4.60
2022-09-27T18:51:37.567Z,3.88
2022-09-27T18:54:08.136Z,4.45
2022-09-27T18:56:39.505Z,6.88
2022-09-27T18:59:08.982Z,8.52
2022-09-27T19:01:39.784Z,7.25
2022-09-27T19:04:09.259Z,6.20
2022-09-27T19:06:38.915Z,6.10
2022-09-27T19:09:07.950Z,5.28
2022-09-27T19:11:37.645Z,4.32
2022-09-27T19:14:05.549Z,4.50
2022-09-27T19:16:33.593Z,4.63
2022-09-27T19:19:02.078Z,4.50
2022-09-27T19:21:30.787Z,4.50
2022-09-27T19:23:58.717Z,3.90
2022-09-27T19:26:28.061Z,4.25
2022-09-27T19:28:58.747Z,4.10
2022-09-27T19:31:29.287Z,3.78
2022-09-27T19:34:00.408Z,3.70
2022-09-27T19:36:29.548Z,3.33
2022-09-27T19:38:58.492Z,3.47
2022-09-27T19:41:27.800Z,3.58
2022-09-27T19:43:58.978Z,4.55
2022-09-27T19:46:27.481Z,7.68
2022-09-27T19:48:56.158Z,9.75
2022-09-27T19:51:25.588Z,7.20
2022-09-27T19:53:54.658Z,7.05
2022-09-27T19:56:23.119Z,7.63
2022-09-27T19:58:51.503Z,7.70
2022-09-27T20:01:22.717Z,6.38
2022-09-27T20:03:52.472Z,6.75
2022-09-27T20:06:22.135Z,6.40
2022-09-27T20:08:50.438Z,5.50
2022-09-27T20:11:19.908Z,6.40
2022-09-27T20:13:48.921Z,5.97
2022-09-27T20:16:18.525Z,5.30
2022-09-27T20:18:49.378Z,4.82
2022-09-27T20:21:18.273Z,4.93
2022-09-27T20:23:49.493Z,4.80
2022-09-27T20:26:18.769Z,4.90
2022-09-27T20:28:48.473Z,5.13
2022-09-27T20:31:19.646Z,4.78
2022-09-27T20:33:51.432Z,5.70
2022-09-27T20:36:21.278Z,6.13
2022-09-27T20:38:51.612Z,5.50
2022-09-27T20:41:22.063Z,4.75
2022-09-27T20:43:54.651Z,3.65
2022-09-27T20:46:23.810Z,3.80
2022-09-27T20:48:58.393Z,5.40
2022-09-27T20:51:27.181Z,33.42
2022-09-27T20:53:55.882Z,19.23
2022-09-27T20:56:26.627Z,24.02
2022-09-27T20:58:57.524Z,17.35
2022-09-27T21:01:26.889Z,62.38
2022-09-27T21:03:57.242Z,39.85
2022-09-27T21:06:27.031Z,16.48
2022-09-27T21:08:55.480Z,8.25
2022-09-27T21:11:24.676Z,9.15
2022-09-27T21:13:53.923Z,9.77
2022-09-27T21:16:24.966Z,12.80
2022-09-27T21:18:54.668Z,6.28
2022-09-27T21:21:25.605Z,4.15
2022-09-27T21:23:56.175Z,5.55
2022-09-27T21:26:26.221Z,4.40
2022-09-27T21:31:25.105Z,4.63
2022-09-27T21:33:55.026Z,4.28
2022-09-27T21:38:52.561Z,3.92
2022-09-27T21:41:20.686Z,4.15
2022-09-27T21:43:49.850Z,4.07
2022-09-27T21:46:19.503Z,3.70
2022-09-27T21:48:49.553Z,3.70
2022-09-27T21:53:51.774Z,3.20
2022-09-27T21:56:20.154Z,3.40
2022-09-27T21:58:48.345Z,3.67
2022-09-27T22:01:21.099Z,3.63
2022-09-27T22:03:50.147Z,3.03
2022-09-27T22:06:20.360Z,3.63
2022-09-27T22:08:50.535Z,3.45
2022-09-27T22:11:20.369Z,3.10
2022-09-27T22:16:18.087Z,3.67
2022-09-27T22:18:46.369Z,3.42
2022-09-27T22:21:16.045Z,3.47
2022-09-27T22:23:45.364Z,3.47
2022-09-27T22:26:16.545Z,3.60
2022-09-27T22:28:45.582Z,3.20
2022-09-27T22:31:15.114Z,3.47
2022-09-27T22:33:43.787Z,4.03
2022-09-27T22:36:11.647Z,3.40
2022-09-27T22:38:39.474Z,3.63
2022-09-27T22:41:07.328Z,3.67
2022-09-27T22:43:36.587Z,3.60
2022-09-27T22:46:05.221Z,3.60
2022-09-27T22:48:33.812Z,3.72
2022-09-27T22:51:02.290Z,3.53
2022-09-27T22:53:31.110Z,3.40
2022-09-27T22:56:04.036Z,5.68
2022-09-27T22:58:34.146Z,2.95
2022-09-27T23:01:10.206Z,2.60
2022-09-27T23:03:38.143Z,2.67
2022-09-27T23:06:06.992Z,2.60
2022-09-27T23:08:36.141Z,3.90
2022-09-27T23:11:06.371Z,8.77
2022-09-27T23:13:35.508Z,4.22
2022-09-27T23:16:04.911Z,5.93
2022-09-27T23:18:34.732Z,3.85
2022-09-27T23:21:06.851Z,2.78
2022-09-27T23:23:35.984Z,3.88
2022-09-27T23:26:05.916Z,3.40
2022-09-27T23:31:08.137Z,5.78
2022-09-27T23:33:38.447Z,4.82
2022-09-27T23:36:08.147Z,3.83
2022-09-27T23:38:37.146Z,4.78
2022-09-27T23:41:05.334Z,6.00
2022-09-27T23:43:33.164Z,6.43
2022-09-27T23:46:01.017Z,5.22
2022-09-27T23:48:29.139Z,2.88
2022-09-27T23:50:58.370Z,2.65
2022-09-27T23:53:26.351Z,3.03
2022-09-27T23:56:02.619Z,4.55
2022-09-27T23:58:33.399Z,6.78
